createdAt,value
2023-04-21T00:00:54.769Z,7.93
2023-04-21T00:03:44.177Z,7.87
2023-04-21T00:06:33.125Z,8.00
2023-04-21T00:09:21.718Z,8.11
2023-04-21T00:12:10.318Z,8.02
2023-04-21T00:15:00.195Z,8.05
2023-04-21T00:17:48.610Z,7.93
2023-04-21T00:20:37.046Z,7.94
2023-04-21T00:23:25.372Z,8.02
2023-04-21T00:26:13.815Z,8.09
2023-04-21T00:29:05.291Z,8.02
2023-04-21T00:31:55.088Z,8.10
2023-04-21T00:34:43.555Z,8.05
2023-04-21T00:37:33.972Z,7.94
2023-04-21T00:40:22.556Z,8.03
2023-04-21T00:43:10.970Z,8.06
2023-04-21T00:45:59.275Z,8.07
2023-04-21T00:48:48.957Z,8.12
2023-04-21T00:51:38.448Z,8.15
2023-04-21T00:54:27.025Z,8.18
2023-04-21T00:57:15.472Z,8.15
2023-04-21T01:00:05.798Z,8.24
2023-04-21T01:02:54.284Z,8.16
2023-04-21T01:05:44.243Z,8.22
2023-04-21T01:08:33.494Z,8.26
2023-04-21T01:11:21.885Z,8.14
2023-04-21T01:14:10.238Z,7.86
2023-04-21T01:16:59.513Z,7.84
2023-04-21T01:19:47.931Z,7.72
2023-04-21T01:22:38.548Z,7.72
2023-04-21T01:25:28.590Z,7.74
2023-04-21T01:28:22.854Z,7.84
2023-04-21T01:31:11.436Z,7.94
2023-04-21T01:34:04.661Z,8.03
2023-04-21T01:36:53.036Z,8.08
2023-04-21T01:39:44.077Z,8.03
2023-04-21T01:42:34.209Z,8.02
2023-04-21T01:45:22.885Z,8.05
2023-04-21T01:48:11.338Z,8.05
2023-04-21T01:51:01.301Z,7.93
2023-04-21T01:53:49.777Z,8.03
2023-04-21T01:56:40.161Z,8.05
2023-04-21T01:59:28.584Z,8.02
2023-04-21T02:02:16.987Z,8.00
2023-04-21T02:05:06.108Z,8.02
2023-04-21T02:07:54.863Z,7.83
2023-04-21T02:10:44.144Z,7.67
2023-04-21T02:13:35.914Z,7.68
2023-04-21T02:16:26.303Z,7.51
2023-04-21T02:19:14.837Z,7.53
2023-04-21T02:22:04.084Z,7.61
2023-04-21T02:24:52.777Z,7.63
2023-04-21T02:27:41.195Z,7.61
2023-04-21T02:30:31.010Z,7.61
2023-04-21T02:33:19.655Z,7.61
2023-04-21T02:36:10.175Z,7.52
2023-04-21T02:38:58.512Z,7.58
2023-04-21T02:41:46.942Z,7.56
2023-04-21T02:44:35.296Z,7.55
2023-04-21T02:47:25.055Z,7.55
2023-04-21T02:50:14.797Z,7.53
2023-04-21T02:53:03.367Z,7.54
2023-04-21T02:55:51.729Z,7.57
2023-04-21T02:58:40.676Z,7.52
2023-04-21T03:01:29.068Z,7.54
2023-04-21T03:04:19.819Z,7.50
2023-04-21T03:07:12.991Z,7.40
2023-04-21T03:10:01.488Z,7.33
2023-04-21T03:12:51.335Z,7.32
2023-04-21T03:15:39.709Z,7.32
2023-04-21T03:18:28.271Z,7.13
2023-04-21T03:21:18.060Z,7.25
2023-04-21T03:24:07.512Z,7.28
2023-04-21T03:26:57.053Z,7.28
2023-04-21T03:29:45.569Z,7.29
2023-04-21T03:32:34.090Z,7.28
2023-04-21T03:35:22.570Z,7.28
2023-04-21T03:38:12.352Z,7.25
2023-04-21T03:41:00.881Z,7.25
2023-04-21T03:44:14.598Z,7.21
2023-04-21T03:47:03.768Z,7.17
2023-04-21T03:49:52.170Z,7.15
2023-04-21T03:52:41.021Z,7.13
2023-04-21T03:55:30.775Z,7.12
2023-04-21T03:58:19.453Z,7.10
2023-04-21T04:01:08.036Z,7.12
2023-04-21T04:03:56.776Z,7.11
2023-04-21T04:06:45.388Z,7.15
2023-04-21T04:09:33.849Z,7.11
2023-04-21T04:12:23.626Z,7.09
2023-04-21T04:15:12.379Z,7.05
2023-04-21T04:18:01.736Z,7.03
2023-04-21T04:20:50.287Z,7.08
2023-04-21T04:23:38.967Z,7.06
2023-04-21T04:26:27.499Z,7.05
2023-04-21T04:29:18.004Z,7.00
2023-04-21T04:32:06.732Z,6.96
2023-04-21T04:34:55.868Z,7.00
2023-04-21T04:37:45.578Z,6.89
2023-04-21T04:40:34.056Z,6.82
2023-04-21T04:43:22.629Z,6.89
2023-04-21T04:46:13.200Z,6.83
2023-04-21T04:49:01.906Z,6.79
2023-04-21T04:51:50.367Z,6.82
2023-04-21T04:54:38.786Z,6.83
2023-04-21T04:57:27.184Z,6.84
2023-04-21T05:00:16.109Z,6.86
2023-04-21T05:03:06.101Z,6.84
2023-04-21T05:05:54.653Z,6.90
2023-04-21T05:08:43.031Z,6.90
2023-04-21T05:11:31.517Z,6.90
2023-04-21T05:14:20.174Z,6.94
2023-04-21T05:17:09.075Z,6.96
2023-04-21T05:19:58.852Z,7.01
2023-04-21T05:22:47.267Z,7.00
2023-04-21T05:25:35.853Z,7.01
2023-04-21T05:28:24.294Z,6.85
2023-04-21T05:31:12.675Z,6.78
2023-04-21T05:34:01.066Z,6.78
2023-04-21T05:36:52.312Z,6.70
2023-04-21T05:39:40.797Z,6.71
2023-04-21T05:42:29.166Z,6.51
2023-04-21T05:45:17.748Z,6.60
2023-04-21T05:48:06.985Z,6.60
2023-04-21T05:50:55.487Z,6.54
2023-04-21T05:53:47.551Z,6.45
2023-04-21T05:56:36.059Z,6.48
2023-04-21T05:59:26.409Z,6.57
2023-04-21T06:02:14.906Z,6.51
2023-04-21T06:05:03.859Z,6.57
2023-04-21T06:07:52.445Z,6.72
2023-04-21T06:10:42.706Z,6.89
2023-04-21T06:13:31.064Z,7.04
2023-04-21T06:16:19.506Z,7.04
2023-04-21T06:19:07.958Z,7.22
2023-04-21T06:21:57.789Z,7.15
2023-04-21T06:24:46.210Z,7.16
2023-04-21T06:27:36.067Z,7.47
2023-04-21T06:30:24.950Z,7.68
2023-04-21T06:33:13.405Z,7.82
2023-04-21T06:36:01.863Z,7.92
2023-04-21T06:38:50.392Z,8.03
2023-04-21T06:41:38.899Z,8.14
2023-04-21T06:44:29.236Z,8.23
2023-04-21T06:47:17.864Z,8.33
2023-04-21T06:50:07.531Z,8.36
2023-04-21T06:52:56.021Z,8.26
2023-04-21T06:55:44.433Z,8.45
2023-04-21T06:58:32.866Z,8.49
2023-04-21T07:01:24.369Z,8.64
2023-04-21T07:04:12.998Z,8.76
2023-04-21T07:07:03.094Z,8.74
2023-04-21T07:09:51.832Z,8.80
2023-04-21T07:12:40.247Z,8.75
2023-04-21T07:15:28.766Z,8.90
2023-04-21T07:18:18.685Z,9.02
2023-04-21T07:21:07.262Z,9.01
2023-04-21T07:23:55.656Z,9.01
2023-04-21T07:26:44.120Z,9.10
2023-04-21T07:29:32.589Z,9.22
2023-04-21T07:32:21.198Z,9.33
2023-04-21T07:35:11.403Z,9.33
2023-04-21T07:37:59.868Z,9.01
2023-04-21T07:40:48.282Z,9.24
2023-04-21T07:43:36.819Z,9.49
2023-04-21T07:46:30.306Z,9.41
2023-04-21T07:49:18.893Z,9.65
2023-04-21T07:52:08.805Z,9.75
2023-04-21T07:54:57.411Z,9.84
2023-04-21T07:57:45.881Z,9.99
2023-04-21T08:00:34.569Z,10.11
2023-04-21T08:03:24.457Z,10.23
2023-04-21T08:06:13.344Z,10.23
2023-04-21T08:09:03.530Z,10.40
2023-04-21T08:11:52.065Z,10.53
2023-04-21T08:14:40.996Z,10.59
2023-04-21T08:17:29.502Z,10.55
2023-04-21T08:20:18.039Z,10.67
2023-04-21T08:23:06.562Z,10.83
2023-04-21T08:25:56.455Z,10.71
2023-04-21T08:28:44.891Z,10.82
2023-04-21T08:31:33.905Z,10.64
2023-04-21T08:34:24.192Z,10.63
2023-04-21T08:37:14.237Z,10.62
2023-04-21T08:40:02.666Z,10.64
2023-04-21T08:42:52.456Z,10.68
2023-04-21T08:45:41.315Z,10.70
2023-04-21T08:48:31.055Z,10.81
2023-04-21T08:51:24.389Z,10.77
2023-04-21T08:54:13.404Z,10.71
2023-04-21T08:57:14.164Z,10.84
2023-04-21T09:00:07.918Z,10.95
2023-04-21T09:03:01.155Z,11.08
2023-04-21T09:05:59.108Z,11.25
2023-04-21T09:08:56.751Z,11.34
2023-04-21T09:12:03.533Z,11.45
2023-04-21T09:14:52.423Z,11.50
2023-04-21T09:17:42.274Z,11.56
2023-04-21T09:20:31.394Z,11.60
2023-04-21T09:23:19.883Z,11.58
2023-04-21T09:26:08.485Z,11.66
2023-04-21T09:28:56.885Z,11.83
2023-04-21T09:31:45.886Z,11.94
2023-04-21T09:34:42.752Z,12.04
2023-04-21T09:37:33.822Z,12.13
2023-04-21T09:40:22.275Z,12.24
2023-04-21T09:43:11.864Z,12.30
2023-04-21T09:46:01.693Z,12.40
2023-04-21T09:48:50.145Z,12.45
2023-04-21T09:52:09.706Z,12.41
2023-04-21T09:54:52.095Z,12.56
2023-04-21T09:57:43.000Z,12.66
2023-04-21T10:00:31.435Z,12.77
2023-04-21T10:03:21.569Z,12.84
2023-04-21T10:06:10.378Z,12.82
2023-04-21T10:09:00.459Z,12.97
2023-04-21T10:11:48.928Z,13.26
2023-04-21T10:14:37.436Z,13.26
2023-04-21T10:17:27.409Z,13.32
2023-04-21T10:20:16.776Z,13.38
2023-04-21T10:23:05.287Z,13.56
2023-04-21T10:25:55.391Z,13.49
2023-04-21T10:28:46.670Z,13.63
2023-04-21T10:32:00.405Z,13.81
2023-04-21T10:34:49.107Z,13.87
2023-04-21T10:37:37.816Z,13.94
2023-04-21T10:43:49.605Z,14.09
2023-04-21T10:46:39.728Z,14.27
2023-04-21T10:49:30.329Z,14.29
2023-04-21T10:52:20.979Z,14.43
2023-04-21T10:55:12.740Z,14.59
2023-04-21T10:58:03.697Z,14.69
2023-04-21T11:00:56.515Z,14.73
2023-04-21T11:03:45.162Z,14.86
2023-04-21T11:06:33.808Z,14.95
2023-04-21T11:09:22.233Z,15.05
2023-04-21T11:12:11.710Z,15.05
2023-04-21T11:15:00.238Z,15.05
2023-04-21T11:17:51.298Z,15.16
2023-04-21T11:20:41.614Z,15.21
2023-04-21T11:23:30.206Z,15.30
2023-04-21T11:26:19.306Z,15.35
2023-04-21T11:29:09.297Z,15.48
2023-04-21T11:31:59.099Z,15.62
2023-04-21T11:34:48.975Z,15.66
2023-04-21T11:37:37.904Z,15.78
2023-04-21T11:40:26.301Z,15.81
2023-04-21T11:43:14.785Z,15.86
2023-04-21T11:46:13.994Z,15.88
2023-04-21T11:49:04.450Z,15.86
2023-04-21T11:51:54.259Z,15.96
2023-04-21T11:54:45.651Z,16.07
2023-04-21T11:57:35.166Z,16.13
2023-04-21T12:00:23.635Z,16.19
2023-04-21T12:03:12.617Z,16.33
2023-04-21T12:06:01.212Z,16.46
2023-04-21T12:08:55.682Z,16.41
2023-04-21T12:11:44.203Z,16.59
2023-04-21T12:14:34.704Z,16.63
2023-04-21T12:17:23.233Z,16.83
2023-04-21T12:20:12.855Z,16.81
2023-04-21T12:23:01.299Z,16.84
2023-04-21T12:25:51.532Z,16.99
2023-04-21T12:28:40.275Z,17.05
2023-04-21T12:31:28.889Z,17.01
2023-04-21T12:34:17.388Z,17.00
2023-04-21T12:37:06.163Z,17.09
2023-04-21T12:39:54.606Z,17.10
2023-04-21T12:42:44.424Z,17.11
2023-04-21T12:45:33.159Z,17.21
2023-04-21T12:48:21.713Z,17.29
2023-04-21T12:51:10.730Z,17.30
2023-04-21T12:53:59.142Z,17.40
2023-04-21T12:56:47.574Z,17.40
2023-04-21T12:59:37.308Z,17.55
2023-04-21T13:02:26.119Z,17.64
2023-04-21T13:05:15.112Z,17.77
2023-04-21T13:08:03.512Z,17.77
2023-04-21T13:10:53.405Z,17.86
2023-04-21T13:13:44.649Z,17.93
2023-04-21T13:16:34.479Z,17.95
2023-04-21T13:19:23.011Z,17.92
2023-04-21T13:22:11.458Z,17.85
2023-04-21T13:24:59.881Z,18.21
2023-04-21T13:27:48.350Z,18.42
2023-04-21T13:30:36.984Z,18.29
2023-04-21T13:33:26.963Z,18.23
2023-04-21T13:36:15.558Z,18.26
2023-04-21T13:39:04.687Z,18.27
2023-04-21T13:41:54.364Z,18.38
2023-04-21T13:44:43.001Z,18.55
2023-04-21T13:47:34.487Z,18.78
2023-04-21T13:50:24.372Z,18.76
2023-04-21T13:53:14.104Z,18.73
2023-04-21T13:56:02.596Z,18.72
2023-04-21T13:58:51.100Z,18.85
2023-04-21T14:01:39.555Z,18.89
2023-04-21T14:04:28.210Z,18.63
2023-04-21T14:07:19.522Z,18.70
2023-04-21T14:10:09.120Z,18.96
2023-04-21T14:12:57.560Z,19.05
2023-04-21T14:15:46.089Z,19.10
2023-04-21T14:18:34.587Z,19.23
2023-04-21T14:21:23.015Z,19.38
2023-04-21T14:24:12.870Z,19.63
2023-04-21T14:27:01.296Z,19.71
2023-04-21T14:29:49.760Z,19.77
2023-04-21T14:32:38.626Z,19.97
2023-04-21T14:35:27.323Z,20.03
2023-04-21T14:38:15.751Z,20.14
2023-04-21T14:41:05.926Z,20.35
2023-04-21T14:43:56.596Z,20.31
2023-04-21T14:46:53.324Z,20.65
2023-04-21T14:49:54.676Z,20.68
2023-04-21T14:52:43.899Z,20.90
2023-04-21T14:55:32.309Z,21.22
2023-04-21T14:58:22.166Z,21.28
2023-04-21T15:01:11.327Z,21.10
2023-04-21T15:04:00.672Z,21.34
2023-04-21T15:06:49.451Z,21.38
2023-04-21T15:09:39.083Z,21.34
2023-04-21T15:12:27.561Z,21.40
2023-04-21T15:15:17.403Z,21.53
2023-04-21T15:18:05.914Z,21.75
2023-04-21T15:20:54.354Z,21.40
2023-04-21T15:23:42.878Z,21.44
2023-04-21T15:26:31.426Z,21.46
2023-04-21T15:29:19.838Z,21.29
2023-04-21T15:32:09.702Z,21.46
2023-04-21T15:34:58.100Z,21.89
2023-04-21T15:37:46.537Z,22.01
2023-04-21T15:40:37.518Z,21.86
2023-04-21T15:43:30.209Z,21.64
2023-04-21T15:46:18.709Z,21.66
2023-04-21T15:49:08.520Z,21.81
2023-04-21T15:51:57.240Z,21.74
2023-04-21T15:54:47.100Z,21.15
2023-04-21T15:57:35.552Z,21.67
2023-04-21T16:00:24.630Z,21.73
2023-04-21T16:03:13.292Z,22.02
2023-04-21T16:06:03.523Z,21.53
2023-04-21T16:08:52.371Z,21.43
2023-04-21T16:11:40.955Z,21.28
2023-04-21T16:14:39.326Z,20.83
2023-04-21T16:17:36.593Z,20.83
2023-04-21T16:20:25.887Z,20.40
2023-04-21T16:23:16.534Z,20.04
2023-04-21T16:26:05.962Z,19.96
2023-04-21T16:28:55.553Z,20.11
2023-04-21T16:31:44.017Z,19.86
2023-04-21T16:34:32.567Z,19.60
2023-04-21T16:37:20.948Z,19.30
2023-04-21T16:40:11.979Z,19.17
2023-04-21T16:43:00.550Z,19.34
2023-04-21T16:45:49.177Z,19.11
2023-04-21T16:48:37.846Z,19.07
2023-04-21T16:51:28.503Z,18.95
2023-04-21T16:54:17.045Z,19.04
2023-04-21T16:57:07.111Z,18.96
2023-04-21T16:59:55.634Z,18.68
2023-04-21T17:02:44.294Z,18.79
2023-04-21T17:05:32.815Z,18.75
2023-04-21T17:08:21.302Z,18.71
2023-04-21T17:11:09.693Z,18.60
2023-04-21T17:13:59.580Z,18.50
2023-04-21T17:16:48.168Z,18.43
2023-04-21T17:19:36.841Z,18.45
2023-04-21T17:22:25.244Z,18.32
2023-04-21T17:25:13.769Z,18.24
2023-04-21T17:28:02.430Z,18.19
2023-04-21T17:31:00.240Z,18.20
2023-04-21T17:33:57.247Z,17.87
2023-04-21T17:36:45.748Z,17.89
2023-04-21T17:39:34.120Z,17.97
2023-04-21T17:42:22.739Z,17.85
2023-04-21T17:45:12.029Z,17.89
2023-04-21T17:48:01.913Z,17.89
2023-04-21T17:50:50.486Z,17.89
2023-04-21T17:53:39.180Z,17.80
2023-04-21T17:56:27.823Z,17.90
2023-04-21T17:59:16.448Z,17.85
2023-04-21T18:02:05.337Z,17.78
2023-04-21T18:04:55.425Z,17.85
2023-04-21T18:07:43.906Z,17.67
2023-04-21T18:10:32.426Z,17.51
2023-04-21T18:13:21.012Z,17.62
2023-04-21T18:16:09.642Z,17.67
2023-04-21T18:18:58.080Z,17.42
2023-04-21T18:21:47.976Z,17.33
2023-04-21T18:24:36.722Z,17.38
2023-04-21T18:27:25.361Z,17.38
2023-04-21T18:30:14.132Z,17.37
2023-04-21T18:33:02.709Z,17.18
2023-04-21T18:35:51.332Z,17.21
2023-04-21T18:38:41.166Z,17.03
2023-04-21T18:41:29.764Z,16.88
2023-04-21T18:44:18.262Z,16.77
2023-04-21T18:47:06.751Z,16.77
2023-04-21T18:49:55.421Z,16.82
2023-04-21T18:52:43.908Z,16.84
2023-04-21T18:55:33.914Z,16.80
2023-04-21T18:58:22.623Z,16.75
2023-04-21T19:01:11.296Z,16.66
2023-04-21T19:04:00.023Z,16.34
2023-04-21T19:06:49.482Z,16.27
2023-04-21T19:09:37.940Z,16.22
2023-04-21T19:12:28.874Z,16.11
2023-04-21T19:15:17.355Z,16.06
2023-04-21T19:18:06.553Z,16.05
2023-04-21T19:20:55.140Z,15.92
2023-04-21T19:23:43.533Z,15.99
2023-04-21T19:26:31.998Z,15.80
2023-04-21T19:29:21.770Z,15.84
2023-04-21T19:32:10.188Z,15.83
2023-04-21T19:34:58.622Z,15.79
2023-04-21T19:37:47.126Z,15.77
2023-04-21T19:40:35.521Z,15.65
2023-04-21T19:43:24.069Z,15.50
2023-04-21T19:46:14.051Z,15.54
2023-04-21T19:49:02.684Z,15.50
2023-04-21T19:51:51.732Z,15.42
2023-04-21T19:54:40.451Z,15.39
2023-04-21T19:57:29.024Z,15.39
2023-04-21T20:00:18.217Z,15.38
2023-04-21T20:03:08.952Z,15.34
2023-04-21T20:05:57.610Z,15.30
2023-04-21T20:08:46.171Z,15.25
2023-04-21T20:11:34.806Z,15.17
2023-04-21T20:14:23.356Z,15.11
2023-04-21T20:17:11.737Z,15.01
2023-04-21T20:20:02.026Z,14.95
2023-04-21T20:22:50.494Z,14.88
2023-04-21T20:25:39.164Z,14.82
2023-04-21T20:28:28.257Z,14.75
2023-04-21T20:31:18.010Z,14.63
2023-04-21T20:34:06.768Z,14.49
2023-04-21T20:36:56.931Z,14.19
2023-04-21T20:39:46.760Z,14.19
2023-04-21T20:42:35.201Z,14.19
2023-04-21T20:45:23.823Z,14.11
2023-04-21T20:48:12.265Z,14.14
2023-04-21T20:51:01.150Z,14.14
2023-04-21T20:53:50.945Z,14.18
2023-04-21T20:56:39.628Z,14.15
2023-04-21T20:59:28.068Z,14.15
2023-04-21T21:02:16.593Z,13.98
2023-04-21T21:05:05.422Z,13.74
2023-04-21T21:07:54.123Z,13.54
2023-04-21T21:10:43.870Z,13.54
2023-04-21T21:13:32.491Z,13.41
2023-04-21T21:16:21.008Z,13.46
2023-04-21T21:19:10.023Z,13.50
2023-04-21T21:21:58.423Z,13.54
2023-04-21T21:24:46.825Z,13.47
2023-04-21T21:27:36.626Z,13.33
2023-04-21T21:30:25.050Z,13.19
2023-04-21T21:33:13.526Z,13.03
2023-04-21T21:36:01.968Z,13.02
2023-04-21T21:38:50.397Z,13.05
2023-04-21T21:41:39.753Z,12.79
2023-04-21T21:44:29.580Z,12.88
2023-04-21T21:47:18.223Z,12.87
2023-04-21T21:50:07.710Z,12.88
2023-04-21T21:52:56.148Z,12.84
2023-04-21T21:55:44.615Z,12.90
2023-04-21T21:58:33.100Z,12.87
2023-04-21T22:01:23.100Z,12.84
2023-04-21T22:04:11.679Z,12.79
2023-04-21T22:07:00.179Z,12.80
2023-04-21T22:09:48.613Z,12.79
2023-04-21T22:12:37.199Z,12.70
2023-04-21T22:15:25.586Z,12.79
2023-04-21T22:18:18.372Z,12.81
2023-04-21T22:21:06.935Z,12.74
2023-04-21T22:23:55.445Z,12.61
2023-04-21T22:26:44.142Z,12.34
2023-04-21T22:29:32.560Z,12.14
2023-04-21T22:32:20.981Z,12.30
2023-04-21T22:35:10.974Z,12.34
2023-04-21T22:37:59.356Z,12.38
2023-04-21T22:40:48.061Z,12.36
2023-04-21T22:43:36.476Z,12.32
2023-04-21T22:46:25.026Z,12.30
2023-04-21T22:49:14.284Z,12.24
2023-04-21T22:52:04.078Z,12.20
2023-04-21T22:54:52.435Z,12.18
2023-04-21T22:57:40.939Z,12.09
2023-04-21T23:00:29.323Z,11.96
2023-04-21T23:03:18.022Z,11.86
2023-04-21T23:06:06.970Z,11.75
2023-04-21T23:08:56.703Z,11.77
2023-04-21T23:11:45.102Z,11.76
2023-04-21T23:14:33.462Z,11.72
2023-04-21T23:17:22.168Z,11.74
2023-04-21T23:20:11.599Z,11.74
2023-04-21T23:22:59.994Z,11.69
2023-04-21T23:25:49.777Z,11.77
2023-04-21T23:28:38.278Z,11.80
2023-04-21T23:31:26.994Z,11.80
2023-04-21T23:34:15.792Z,11.78
2023-04-21T23:37:04.159Z,11.73
2023-04-21T23:39:52.528Z,11.66
2023-04-21T23:42:42.312Z,11.55
2023-04-21T23:45:36.055Z,11.50
2023-04-21T23:48:24.482Z,11.43
2023-04-21T23:51:13.018Z,11.32
2023-04-21T23:54:01.698Z,11.38
2023-04-21T23:56:50.080Z,11.40
2023-04-21T23:59:40.176Z,11.33
